Time;durP1;ratioP1;P1;durP2;ratioP2;P2;SDS_P1;SDS_P2;PMS_P1;PMS_P2;Temp;Humidity;BMP_temperature;BMP_pressure;BME280_temperature;BME280_humidity;BME280_pressure;Samples;Min_cycle;Max_cycle;Signal;HPM_P1;HPM_P2
2022/09/06 00:00:25;;;;;;;5.00;1.90;;;24.00;65.00;;;;;;4984080;28;20026;-59
2022/09/06 00:02:51;;;;;;;8.45;1.95;;;24.00;65.00;;;;;;4985762;28;20030;-59
2022/09/06 00:05:21;;;;;;;5.85;1.98;;;24.00;65.00;;;;;;4982337;28;20034;-58
2022/09/06 00:07:48;;;;;;;5.20;1.70;;;24.00;65.00;;;;;;4998472;28;20039;-59
2022/09/06 00:10:17;;;;;;;5.97;1.95;;;24.00;65.00;;;;;;4984336;28;20072;-59
2022/09/06 00:12:43;;;;;;;4.10;1.48;;;24.00;65.00;;;;;;4998388;28;20041;-58
2022/09/06 00:15:09;;;;;;;5.07;1.80;;;24.00;65.00;;;;;;4984298;28;20038;-59
2022/09/06 00:17:35;;;;;;;5.30;1.60;;;24.00;65.00;;;;;;4981695;28;20038;-58
2022/09/06 00:20:02;;;;;;;5.28;1.90;;;24.00;65.00;;;;;;4986448;28;20088;-58
2022/09/06 00:22:28;;;;;;;6.03;2.08;;;24.00;65.00;;;;;;4985020;28;20645;-59
2022/09/06 00:24:59;;;;;;;5.30;1.85;;;24.00;65.00;;;;;;4985825;28;20618;-58
2022/09/06 00:27:28;;;;;;;6.78;1.98;;;24.00;65.00;;;;;;4984011;28;20037;-59
2022/09/06 00:29:54;;;;;;;5.57;1.77;;;23.90;65.00;;;;;;4997442;28;20046;-57
2022/09/06 00:32:20;;;;;;;4.93;1.67;;;23.90;64.90;;;;;;4983380;28;20085;-59
2022/09/06 00:34:46;;;;;;;5.82;1.73;;;23.90;65.00;;;;;;4999801;28;20076;-59
2022/09/06 00:37:14;;;;;;;7.32;2.03;;;23.90;64.90;;;;;;4982775;28;20027;-59
2022/09/06 00:39:40;;;;;;;5.65;1.80;;;23.90;64.90;;;;;;4984142;28;20031;-59
2022/09/06 00:42:10;;;;;;;4.38;1.60;;;23.90;65.00;;;;;;4985440;28;20042;-59
2022/09/06 00:44:36;;;;;;;4.95;1.88;;;23.90;65.00;;;;;;4981720;28;20023;-58
2022/09/06 00:47:05;;;;;;;3.60;1.42;;;23.90;65.00;;;;;;4984586;28;20125;-59
2022/09/06 00:49:35;;;;;;;4.68;1.80;;;23.90;65.00;;;;;;4983209;28;20066;-59
2022/09/06 00:52:04;;;;;;;5.93;1.65;;;23.90;65.00;;;;;;4981111;28;20047;-58
2022/09/06 00:54:30;;;;;;;5.53;1.90;;;23.90;65.10;;;;;;5000535;28;20027;-59
2022/09/06 00:56:56;;;;;;;4.95;1.60;;;23.90;65.00;;;;;;4976649;28;20042;-59
2022/09/06 00:59:24;;;;;;;4.65;1.73;;;23.80;65.00;;;;;;4996805;28;20045;-59
2022/09/06 01:01:51;;;;;;;7.20;1.60;;;23.90;65.00;;;;;;4984712;28;20057;-59
2022/09/06 01:04:17;;;;;;;4.40;1.67;;;23.90;65.00;;;;;;4997931;28;20069;-59
2022/09/06 01:06:55;;;;;;;5.75;1.67;;;23.90;65.00;;;;;;4983869;28;20479;-59
2022/09/06 01:09:26;;;;;;;7.30;2.08;;;23.90;65.00;;;;;;4981696;28;20038;-58
2022/09/06 01:11:58;;;;;;;4.63;1.80;;;23.90;65.00;;;;;;4984366;28;20029;-59
2022/09/06 01:14:40;;;;;;;4.45;1.70;;;23.80;65.00;;;;;;4968590;28;20737;-58
2022/09/06 01:17:15;;;;;;;4.28;1.70;;;23.80;65.00;;;;;;4984807;28;20030;-58
2022/09/06 01:20:10;;;;;;;4.15;1.60;;;23.80;65.10;;;;;;4983151;28;20034;-58
2022/09/06 01:22:58;;;;;;;4.88;1.60;;;23.80;65.00;;;;;;4983495;28;20102;-59
2022/09/06 01:25:43;;;;;;;3.42;1.60;;;23.80;65.00;;;;;;4981841;28;20097;-59
2022/09/06 01:28:31;;;;;;;4.40;1.60;;;23.80;65.00;;;;;;4998329;28;20053;-58
2022/09/06 01:31:23;;;;;;;4.30;1.63;;;23.80;65.10;;;;;;4983394;28;20035;-59
2022/09/06 01:34:10;;;;;;;3.90;1.63;;;23.80;65.10;;;;;;4985679;28;20061;-59
2022/09/06 01:36:57;;;;;;;3.85;1.63;;;23.80;65.10;;;;;;4998610;28;20114;-59
2022/09/06 01:39:33;;;;;;;4.30;1.60;;;23.80;65.10;;;;;;4980474;28;20125;-59
2022/09/06 01:42:06;;;;;;;3.50;1.35;;;23.80;65.10;;;;;;5003540;28;20026;-58
2022/09/06 01:44:32;;;;;;;7.20;1.70;;;23.80;65.10;;;;;;4982752;28;20046;-58
2022/09/06 01:47:07;;;;;;;3.42;1.52;;;23.80;65.10;;;;;;5002716;28;20038;-59
2022/09/06 01:49:39;;;;;;;6.40;1.60;;;23.80;65.10;;;;;;5001743;28;20062;-59
2022/09/06 01:52:26;;;;;;;4.43;1.67;;;23.80;65.20;;;;;;4988849;28;20030;-59
2022/09/06 01:55:30;;;;;;;5.47;1.88;;;23.80;65.10;;;;;;4986412;28;20062;-59
2022/09/06 01:58:33;;;;;;;3.80;1.70;;;23.80;65.10;;;;;;5023538;28;20021;-59
2022/09/06 02:01:27;;;;;;;3.63;1.30;;;23.80;65.10;;;;;;5007290;28;20026;-58
2022/09/06 02:04:05;;;;;;;3.88;1.30;;;23.70;65.10;;;;;;5011069;28;20041;-58
2022/09/06 02:06:33;;;;;;;3.17;1.40;;;23.70;65.00;;;;;;5011819;28;20527;-61
2022/09/06 02:09:24;;;;;;;5.03;1.60;;;23.70;65.00;;;;;;4988682;28;20305;-58
2022/09/06 02:11:59;;;;;;;5.20;1.50;;;23.70;65.00;;;;;;5008442;28;20211;-59
2022/09/06 02:14:34;;;;;;;3.42;1.27;;;23.70;65.10;;;;;;5007619;28;20034;-59
2022/09/06 02:17:04;;;;;;;4.35;1.50;;;23.70;65.10;;;;;;5006811;28;20108;-59
2022/09/06 02:19:48;;;;;;;4.55;1.60;;;23.70;65.00;;;;;;5036044;28;20076;-59
2022/09/06 02:22:17;;;;;;;4.93;1.80;;;23.70;65.10;;;;;;5006503;28;20026;-59
2022/09/06 02:24:43;;;;;;;4.10;1.42;;;23.70;65.00;;;;;;5011846;28;20095;-58
2022/09/06 02:27:10;;;;;;;3.40;1.50;;;23.70;65.10;;;;;;5007570;28;20040;-59
2022/09/06 02:29:37;;;;;;;5.03;1.63;;;23.70;66.10;;;;;;5019707;28;20509;-58
2022/09/06 02:32:21;;;;;;;3.08;1.25;;;23.70;65.10;;;;;;4977253;28;20054;-59
2022/09/06 02:34:49;;;;;;;4.25;1.50;;;23.70;65.20;;;;;;5001077;28;20046;-59
2022/09/06 02:37:15;;;;;;;4.32;1.40;;;23.70;65.10;;;;;;4997833;28;20034;-59
2022/09/06 02:39:45;;;;;;;3.90;1.52;;;23.70;65.10;;;;;;5002110;28;20033;-59
2022/09/06 02:42:13;;;;;;;4.03;1.63;;;23.70;65.20;;;;;;4987559;28;20092;-58
2022/09/06 02:44:39;;;;;;;3.78;1.50;;;23.70;65.20;;;;;;4985759;28;20122;-58
2022/09/06 02:47:05;;;;;;;4.00;1.60;;;23.70;65.10;;;;;;4987138;28;20035;-59
2022/09/06 02:49:31;;;;;;;4.57;1.40;;;23.70;65.10;;;;;;4985611;28;20031;-59
2022/09/06 02:51:57;;;;;;;3.30;1.40;;;23.60;65.10;;;;;;4984292;28;20249;-59
2022/09/06 02:54:26;;;;;;;4.05;1.63;;;23.60;65.10;;;;;;4986420;28;20505;-59
2022/09/06 02:56:54;;;;;;;3.60;1.30;;;23.70;65.10;;;;;;4999223;28;20493;-58
2022/09/06 02:59:23;;;;;;;3.00;1.20;;;23.60;65.10;;;;;;4989692;28;20118;-59
2022/09/06 03:01:49;;;;;;;5.00;1.52;;;23.60;65.10;;;;;;5002937;28;20677;-59
2022/09/06 03:04:14;;;;;;;4.47;1.35;;;23.60;65.10;;;;;;5001729;28;20099;-59
2022/09/06 03:06:40;;;;;;;4.18;1.45;;;23.60;65.10;;;;;;5000669;28;20097;-59
2022/09/06 03:09:11;;;;;;;4.13;1.40;;;23.60;65.10;;;;;;4986527;28;20450;-59
2022/09/06 03:11:37;;;;;;;3.22;1.25;;;23.70;65.20;;;;;;4987235;28;20118;-59
2022/09/06 03:14:03;;;;;;;3.78;1.40;;;23.60;65.10;;;;;;4984133;28;20445;-58
2022/09/06 03:16:29;;;;;;;4.32;1.52;;;23.60;65.10;;;;;;4987269;28;20042;-59
2022/09/06 03:18:56;;;;;;;2.83;1.40;;;23.60;65.10;;;;;;4983644;28;20054;-59
2022/09/06 03:21:23;;;;;;;3.40;1.40;;;23.60;65.10;;;;;;4987709;28;20498;-59
2022/09/06 03:23:51;;;;;;;3.55;1.20;;;23.60;65.10;;;;;;4985813;28;20138;-59
2022/09/06 03:26:18;;;;;;;4.38;1.30;;;23.60;65.10;;;;;;4984308;28;20609;-59
2022/09/06 03:28:44;;;;;;;2.72;1.20;;;23.60;65.10;;;;;;4985903;28;20035;-59
2022/09/06 03:31:11;;;;;;;3.85;1.45;;;23.60;65.10;;;;;;4986033;28;20054;-59
2022/09/06 03:33:37;;;;;;;3.70;1.30;;;23.60;65.10;;;;;;4986481;28;20035;-58
2022/09/06 03:36:03;;;;;;;4.45;1.52;;;23.60;65.20;;;;;;4984008;28;20395;-59
2022/09/06 03:38:29;;;;;;;2.70;1.40;;;23.60;65.10;;;;;;4984812;28;20042;-59
2022/09/06 03:40:56;;;;;;;3.75;1.42;;;23.60;66.10;;;;;;4984993;28;20728;-59
2022/09/06 03:43:25;;;;;;;3.05;1.33;;;23.60;65.10;;;;;;4998669;28;20037;-59
2022/09/06 03:45:53;;;;;;;4.65;1.55;;;23.60;65.10;;;;;;4982994;28;20106;-59
2022/09/06 03:48:19;;;;;;;3.03;1.30;;;23.60;65.10;;;;;;4980309;28;20047;-59
2022/09/06 03:50:47;;;;;;;2.35;1.30;;;23.60;65.10;;;;;;4987363;28;20028;-59
2022/09/06 03:53:14;;;;;;;2.50;1.20;;;23.50;65.10;;;;;;4986409;28;20495;-59
2022/09/06 03:55:42;;;;;;;3.40;1.42;;;23.50;65.10;;;;;;4987360;28;20033;-59
2022/09/06 03:58:08;;;;;;;2.40;1.33;;;23.50;65.10;;;;;;4990785;28;20026;-58
2022/09/06 04:00:34;;;;;;;2.65;1.25;;;23.60;65.20;;;;;;4989817;28;20113;-59
2022/09/06 04:03:00;;;;;;;4.03;1.25;;;23.50;65.10;;;;;;4988334;28;20050;-58
2022/09/06 04:05:26;;;;;;;3.60;1.30;;;23.50;65.10;;;;;;4980669;28;20054;-58
2022/09/06 04:07:51;;;;;;;3.10;1.25;;;23.50;65.10;;;;;;4984341;28;20042;-58
2022/09/06 04:10:17;;;;;;;3.58;1.20;;;23.50;65.10;;;;;;4985704;28;20026;-58
2022/09/06 04:12:43;;;;;;;3.35;1.40;;;23.50;65.10;;;;;;4983101;28;20034;-58
2022/09/06 04:15:12;;;;;;;4.25;1.30;;;23.50;65.20;;;;;;4982293;28;20030;-58
2022/09/06 04:17:38;;;;;;;2.97;1.17;;;23.50;65.10;;;;;;4986301;28;20105;-58
2022/09/06 04:20:04;;;;;;;3.22;1.25;;;23.50;66.20;;;;;;4985289;28;20410;-58
2022/09/06 04:22:30;;;;;;;3.47;1.50;;;23.50;65.10;;;;;;4983163;28;20129;-58
2022/09/06 04:24:57;;;;;;;3.50;1.20;;;23.50;65.10;;;;;;4982628;28;20596;-58
2022/09/06 04:27:22;;;;;;;2.28;1.20;;;23.50;65.20;;;;;;4991306;28;20108;-58
2022/09/06 04:29:48;;;;;;;4.05;1.40;;;23.50;65.20;;;;;;4984924;28;20118;-58
2022/09/06 04:32:14;;;;;;;3.22;1.48;;;23.50;65.20;;;;;;4986848;28;20035;-58
2022/09/06 04:34:41;;;;;;;2.63;1.00;;;23.50;65.20;;;;;;4990682;28;20469;-58
2022/09/06 04:37:06;;;;;;;2.42;1.20;;;23.50;65.20;;;;;;4987034;28;20039;-58
2022/09/06 04:39:32;;;;;;;3.38;1.40;;;23.50;65.10;;;;;;4984900;28;20085;-58
2022/09/06 04:42:00;;;;;;;2.63;1.30;;;23.40;65.10;;;;;;4984239;28;20036;-58
2022/09/06 04:44:26;;;;;;;2.30;1.23;;;23.40;65.10;;;;;;4983390;28;20113;-58
2022/09/06 04:47:05;;;;;;;3.38;1.30;;;23.40;65.10;;;;;;4983179;28;20113;-58
2022/09/06 04:49:30;;;;;;;2.55;1.15;;;23.50;65.20;;;;;;4997195;28;20113;-58
2022/09/06 04:51:56;;;;;;;2.95;1.25;;;23.50;65.20;;;;;;4979052;28;20105;-58
2022/09/06 04:54:22;;;;;;;2.38;1.30;;;23.40;65.20;;;;;;4980244;28;20045;-58
2022/09/06 04:56:47;;;;;;;3.00;1.20;;;23.50;65.20;;;;;;4982423;28;20047;-58
2022/09/06 04:59:13;;;;;;;2.05;1.20;;;23.50;65.20;;;;;;4984242;28;20026;-58
2022/09/06 05:01:39;;;;;;;3.03;1.23;;;23.50;65.20;;;;;;4981274;28;20027;-58
2022/09/06 05:04:04;;;;;;;2.78;1.10;;;23.50;65.20;;;;;;4980209;28;20117;-58
2022/09/06 05:06:30;;;;;;;2.88;1.15;;;23.50;65.20;;;;;;4986006;28;20031;-59
2022/09/06 05:08:56;;;;;;;2.00;1.05;;;23.50;65.20;;;;;;4982201;28;20066;-58
2022/09/06 05:11:22;;;;;;;5.47;1.55;;;23.40;65.20;;;;;;5000410;28;20038;-58
2022/09/06 05:13:49;;;;;;;3.13;1.40;;;23.40;65.20;;;;;;4985374;28;20078;-58
2022/09/06 05:16:14;;;;;;;2.53;1.27;;;23.50;65.30;;;;;;4985524;28;20431;-58
2022/09/06 05:18:40;;;;;;;2.88;1.30;;;23.40;65.30;;;;;;4990493;28;20097;-58
2022/09/06 05:21:06;;;;;;;3.78;1.33;;;23.40;65.30;;;;;;4986463;28;20077;-58
2022/09/06 05:23:32;;;;;;;4.10;1.55;;;23.40;65.50;;;;;;4987618;28;20058;-59
2022/09/06 05:25:58;;;;;;;6.55;1.33;;;23.40;65.70;;;;;;4980841;28;22098;-58
2022/09/06 05:28:23;;;;;;;3.80;1.50;;;23.40;65.70;;;;;;4985759;28;20038;-58
2022/09/06 05:30:49;;;;;;;2.72;1.27;;;23.40;66.10;;;;;;4989988;28;20034;-58
2022/09/06 05:33:19;;;;;;;4.13;1.30;;;23.40;66.00;;;;;;4985421;28;20490;-58
2022/09/06 05:35:47;;;;;;;6.85;1.50;;;23.40;66.00;;;;;;4987123;28;20122;-58
2022/09/06 05:38:12;;;;;;;5.35;1.48;;;23.40;65.90;;;;;;4990421;28;20605;-58
2022/09/06 05:40:38;;;;;;;4.88;1.42;;;23.40;65.90;;;;;;4987841;28;20034;-58
2022/09/06 05:43:04;;;;;;;3.90;1.33;;;23.40;65.90;;;;;;4986079;28;20085;-58
2022/09/06 05:45:30;;;;;;;5.20;1.50;;;23.40;66.20;;;;;;4986064;28;20030;-59
2022/09/06 05:47:55;;;;;;;6.00;1.40;;;23.40;66.40;;;;;;4987904;28;20058;-58
2022/09/06 05:50:21;;;;;;;6.47;1.70;;;23.40;66.20;;;;;;4988144;28;20084;-58
2022/09/06 05:52:46;;;;;;;6.28;1.50;;;23.30;66.20;;;;;;4988533;28;20023;-59
2022/09/06 05:55:12;;;;;;;5.88;1.42;;;23.30;66.20;;;;;;4988774;28;20483;-58
2022/09/06 05:57:38;;;;;;;5.15;1.60;;;23.30;66.10;;;;;;4985347;28;20081;-59
2022/09/06 06:00:05;;;;;;;3.92;1.40;;;23.30;66.10;;;;;;4987863;28;20031;-58
2022/09/06 06:02:31;;;;;;;6.22;1.40;;;23.40;66.20;;;;;;4986385;28;20042;-59
2022/09/06 06:04:57;;;;;;;6.78;1.60;;;23.30;66.20;;;;;;4984521;28;20569;-59
2022/09/06 06:07:23;;;;;;;5.32;1.73;;;23.30;66.30;;;;;;4986851;28;20034;-59
2022/09/06 06:09:49;;;;;;;4.03;1.60;;;23.30;66.20;;;;;;4980634;28;20093;-59
2022/09/06 06:12:14;;;;;;;7.07;1.58;;;23.30;66.40;;;;;;4987155;28;20703;-59
2022/09/06 06:14:40;;;;;;;5.78;1.67;;;23.30;66.30;;;;;;4986328;28;20499;-58
2022/09/06 06:17:06;;;;;;;5.53;1.75;;;23.30;66.40;;;;;;4985097;28;20880;-58
2022/09/06 06:19:31;;;;;;;7.32;1.70;;;23.30;66.40;;;;;;4985250;28;20549;-58
2022/09/06 06:21:57;;;;;;;6.18;1.70;;;23.30;66.40;;;;;;4987327;28;20140;-59
2022/09/06 06:24:23;;;;;;;6.38;1.65;;;23.30;66.40;;;;;;4988530;28;20042;-59
2022/09/06 06:26:48;;;;;;;4.13;1.60;;;23.30;66.60;;;;;;4985633;28;20023;-59
2022/09/06 06:29:14;;;;;;;6.82;1.83;;;23.30;66.50;;;;;;4985993;28;20030;-59
2022/09/06 06:31:40;;;;;;;4.57;1.42;;;23.30;66.50;;;;;;4987136;28;20023;-58
2022/09/06 06:34:06;;;;;;;6.10;1.60;;;23.20;66.40;;;;;;4987430;28;20442;-58
2022/09/06 06:36:32;;;;;;;5.75;1.52;;;23.20;66.40;;;;;;4987413;28;20037;-59
2022/09/06 06:38:59;;;;;;;4.85;1.30;;;23.20;66.50;;;;;;4985267;28;20035;-59
2022/09/06 06:41:26;;;;;;;6.20;1.70;;;23.20;66.50;;;;;;4987742;28;20026;-58
2022/09/06 06:44:02;;;;;;;4.95;1.60;;;23.20;66.40;;;;;;4984809;28;20034;-58
2022/09/06 06:46:33;;;;;;;7.20;1.60;;;23.20;66.50;;;;;;4983749;28;20062;-58
2022/09/06 06:48:58;;;;;;;5.45;1.48;;;23.20;66.50;;;;;;4986037;28;20053;-59
2022/09/06 06:51:28;;;;;;;4.85;1.35;;;23.20;66.50;;;;;;4985145;28;20390;-58
2022/09/06 06:53:55;;;;;;;7.13;1.60;;;23.20;66.50;;;;;;4984595;28;20109;-58
2022/09/06 06:56:22;;;;;;;5.72;1.40;;;23.20;66.50;;;;;;4985607;28;20038;-58
2022/09/06 06:58:49;;;;;;;5.45;1.55;;;23.20;66.40;;;;;;4982916;28;20038;-58
2022/09/06 07:01:16;;;;;;;6.13;1.48;;;23.20;66.50;;;;;;4984468;28;20105;-58
2022/09/06 07:03:41;;;;;;;4.88;1.40;;;23.20;66.50;;;;;;4987826;28;20114;-59
2022/09/06 07:06:07;;;;;;;4.72;1.52;;;23.20;66.40;;;;;;4984426;28;20105;-58
2022/09/06 07:08:33;;;;;;;5.82;1.65;;;23.20;66.40;;;;;;4985465;28;20061;-59
2022/09/06 07:10:59;;;;;;;5.78;1.60;;;23.20;66.40;;;;;;4987654;28;20030;-58
2022/09/06 07:13:24;;;;;;;4.85;1.48;;;23.20;66.40;;;;;;4986296;28;20026;-58
2022/09/06 07:15:50;;;;;;;4.50;1.60;;;23.20;66.40;;;;;;4986908;28;20030;-59
2022/09/06 07:18:16;;;;;;;6.30;1.52;;;23.20;66.40;;;;;;4987313;28;20431;-58
2022/09/06 07:20:41;;;;;;;6.63;1.35;;;23.20;66.40;;;;;;4985450;28;20077;-58
2022/09/06 07:23:07;;;;;;;6.75;1.50;;;23.20;66.40;;;;;;4985601;28;20559;-59
2022/09/06 07:25:33;;;;;;;7.47;1.73;;;23.20;66.40;;;;;;4986511;28;20594;-58
2022/09/06 07:28:05;;;;;;;5.65;1.70;;;23.20;66.40;;;;;;4986035;28;20510;-58
2022/09/06 07:30:32;;;;;;;5.18;1.38;;;23.20;66.30;;;;;;4983298;28;20034;-59
2022/09/06 07:32:58;;;;;;;5.32;1.30;;;23.20;66.30;;;;;;4983902;28;20561;-58
2022/09/06 07:35:25;;;;;;;5.32;1.60;;;23.20;66.30;;;;;;4985369;28;20026;-58
2022/09/06 07:37:55;;;;;;;4.25;1.35;;;23.20;66.30;;;;;;4987518;28;20034;-58
2022/09/06 07:40:21;;;;;;;5.43;1.40;;;23.20;66.30;;;;;;4983851;28;20067;-58
2022/09/06 07:42:46;;;;;;;3.92;1.38;;;23.10;66.20;;;;;;4987273;28;20038;-59
2022/09/06 07:45:12;;;;;;;4.68;1.40;;;23.20;66.30;;;;;;4984750;28;20022;-58
2022/09/06 07:47:38;;;;;;;5.22;1.48;;;23.20;66.20;;;;;;4983986;28;20053;-58
2022/09/06 07:50:04;;;;;;;4.93;1.30;;;23.20;66.20;;;;;;4985446;28;20030;-58
2022/09/06 07:52:29;;;;;;;7.28;1.48;;;23.20;66.20;;;;;;4984565;28;20088;-59
2022/09/06 07:54:55;;;;;;;4.97;1.40;;;23.20;66.10;;;;;;4985092;28;20027;-58
2022/09/06 07:57:22;;;;;;;4.88;1.60;;;23.20;66.00;;;;;;4983860;28;20528;-59
2022/09/06 07:59:48;;;;;;;4.57;1.20;;;23.20;66.00;;;;;;4982973;28;20854;-58
2022/09/06 08:02:14;;;;;;;4.05;1.40;;;23.10;66.00;;;;;;4986500;28;20034;-58
2022/09/06 08:04:40;;;;;;;5.25;1.40;;;23.20;66.10;;;;;;4985510;28;20022;-58
2022/09/06 08:07:06;;;;;;;4.50;1.42;;;23.20;66.10;;;;;;4984554;28;20138;-58
2022/09/06 08:09:32;;;;;;;3.00;1.30;;;23.10;66.00;;;;;;4986517;28;20065;-58
2022/09/06 08:11:57;;;;;;;5.85;1.70;;;23.10;66.00;;;;;;4985809;28;20042;-58
2022/09/06 08:14:23;;;;;;;6.13;1.30;;;23.10;66.00;;;;;;4985165;28;20026;-58
2022/09/06 08:16:49;;;;;;;4.10;1.23;;;23.10;66.10;;;;;;4981166;28;20026;-58
2022/09/06 08:19:15;;;;;;;5.15;1.60;;;23.10;66.10;;;;;;4984451;28;20030;-59
2022/09/06 08:21:41;;;;;;;5.05;1.40;;;23.10;66.00;;;;;;4984009;28;20064;-58
2022/09/06 08:24:08;;;;;;;4.80;1.42;;;23.10;65.90;;;;;;4984932;28;20325;-58
2022/09/06 08:26:35;;;;;;;4.78;1.70;;;23.10;65.80;;;;;;4982700;28;20073;-58
2022/09/06 08:29:04;;;;;;;5.15;1.50;;;23.10;65.80;;;;;;4985380;28;20041;-59
2022/09/06 08:31:30;;;;;;;3.60;1.13;;;23.20;65.90;;;;;;4983316;28;20034;-58
2022/09/06 08:33:56;;;;;;;3.40;1.23;;;23.20;65.90;;;;;;4984411;28;20080;-58
2022/09/06 08:36:22;;;;;;;4.35;1.45;;;23.10;65.80;;;;;;4986639;28;20032;-58
2022/09/06 08:38:48;;;;;;;3.90;1.30;;;23.20;66.00;;;;;;4985003;28;20030;-59
2022/09/06 08:41:13;;;;;;;5.10;1.52;;;23.20;66.00;;;;;;4981848;28;20491;-58
2022/09/06 08:43:46;;;;;;;3.83;1.30;;;23.10;66.00;;;;;;4983934;28;20034;-58
2022/09/06 08:46:11;;;;;;;3.50;1.50;;;23.20;66.00;;;;;;4997728;28;20153;-58
2022/09/06 08:48:38;;;;;;;4.10;1.30;;;23.20;65.90;;;;;;4983010;28;20122;-58
2022/09/06 08:51:22;;;;;;;3.05;1.25;;;23.20;65.90;;;;;;4987414;28;20032;-59
2022/09/06 08:53:48;;;;;;;4.63;1.40;;;23.20;65.90;;;;;;4986713;28;20027;-58
2022/09/06 08:56:17;;;;;;;5.72;1.52;;;23.20;65.90;;;;;;4987878;28;20037;-58
2022/09/06 08:58:52;;;;;;;4.75;1.40;;;23.20;65.90;;;;;;5003822;28;20026;-58
2022/09/06 09:01:21;;;;;;;4.47;1.35;;;23.20;65.90;;;;;;4987632;28;20053;-58
2022/09/06 09:03:47;;;;;;;2.88;1.35;;;23.20;66.00;;;;;;4990996;28;20613;-58
2022/09/06 09:06:13;;;;;;;5.45;1.55;;;23.20;65.90;;;;;;4986313;28;20018;-58
2022/09/06 09:09:12;;;;;;;4.75;1.48;;;23.20;65.90;;;;;;4988316;28;20046;-58
2022/09/06 09:11:38;;;;;;;5.13;1.50;;;23.20;65.90;;;;;;4965637;28;20507;-59
2022/09/06 09:14:12;;;;;;;4.05;1.40;;;23.20;65.80;;;;;;4969476;28;20101;-59
2022/09/06 09:16:38;;;;;;;4.43;1.40;;;23.20;65.80;;;;;;4976413;28;20045;-58
2022/09/06 09:19:08;;;;;;;4.18;1.45;;;23.20;65.80;;;;;;4966798;28;20068;-58
2022/09/06 09:21:38;;;;;;;3.20;1.10;;;23.30;65.80;;;;;;4953300;28;20049;-59
2022/09/06 09:24:12;;;;;;;4.50;1.35;;;23.30;65.90;;;;;;4986165;28;20042;-59
2022/09/06 09:27:13;;;;;;;4.85;1.40;;;23.30;65.90;;;;;;4981614;28;20415;-59
2022/09/06 09:30:04;;;;;;;6.10;1.48;;;23.30;66.00;;;;;;4976925;28;20037;-58
2022/09/06 09:32:43;;;;;;;4.20;1.35;;;23.30;66.00;;;;;;4979229;28;20042;-59
2022/09/06 09:35:18;;;;;;;5.15;1.40;;;23.30;66.00;;;;;;4978060;28;20042;-58
2022/09/06 09:37:45;;;;;;;3.25;1.10;;;23.30;66.10;;;;;;4976598;28;20525;-58
2022/09/06 09:40:17;;;;;;;3.38;1.38;;;23.30;65.80;;;;;;4972037;28;20638;-57
2022/09/06 09:42:47;;;;;;;3.97;1.50;;;23.30;66.00;;;;;;4971303;28;20034;-58
2022/09/06 09:45:22;;;;;;;4.30;1.60;;;23.40;66.00;;;;;;4965202;28;20110;-58
2022/09/06 09:47:48;;;;;;;;;;;23.40;65.90;;;;;;4986221;28;20069;-58
2022/09/06 09:50:26;;;;;;;4.30;1.30;;;23.40;65.80;;;;;;4986918;28;20369;-58
2022/09/06 09:52:53;;;;;;;3.35;1.33;;;23.40;65.90;;;;;;4982736;28;20118;-58
2022/09/06 09:55:23;;;;;;;3.80;1.30;;;23.40;65.80;;;;;;5003263;28;20117;-58
2022/09/06 09:57:49;;;;;;;2.70;1.25;;;23.40;65.90;;;;;;4964180;28;20612;-58
2022/09/06 10:00:34;;;;;;;5.22;1.60;;;23.40;65.90;;;;;;4981673;28;20030;-58
2022/09/06 10:03:00;;;;;;;3.72;1.27;;;23.50;65.80;;;;;;4980880;28;20027;-58
2022/09/06 10:05:26;;;;;;;5.25;1.30;;;23.50;65.80;;;;;;5003972;28;20507;-58
2022/09/06 10:07:55;;;;;;;3.60;1.20;;;23.50;65.70;;;;;;4982283;28;20057;-58
2022/09/06 10:10:22;;;;;;;2.65;1.05;;;23.50;65.70;;;;;;4997361;28;20026;-58
2022/09/06 10:12:48;;;;;;;5.55;1.50;;;23.50;65.60;;;;;;4997745;28;20610;-58
2022/09/06 10:15:50;;;;;;;4.20;1.30;;;23.50;65.50;;;;;;5001171;28;20031;-58
2022/09/06 10:18:28;;;;;;;7.25;1.50;;;23.50;65.50;;;;;;4979618;28;20618;-58
2022/09/06 10:21:01;;;;;;;5.03;1.58;;;23.50;65.40;;;;;;4981962;28;20489;-58
2022/09/06 10:23:45;;;;;;;5.80;1.40;;;23.60;65.40;;;;;;4964139;28;20165;-58
2022/09/06 10:26:27;;;;;;;4.78;1.25;;;23.60;65.40;;;;;;4980615;28;20042;-58
2022/09/06 10:28:58;;;;;;;4.93;1.23;;;23.50;65.40;;;;;;4969161;28;20125;-58
2022/09/06 10:31:51;;;;;;;5.80;1.60;;;23.50;65.30;;;;;;4970785;28;20113;-58
2022/09/06 10:34:35;;;;;;;5.65;1.52;;;23.50;65.30;;;;;;4971876;28;20038;-59
2022/09/06 10:37:07;;;;;;;4.60;1.42;;;23.60;65.30;;;;;;4979170;28;20030;-58
2022/09/06 10:39:55;;;;;;;3.22;1.30;;;23.60;65.40;;;;;;4968195;28;20034;-58
2022/09/06 10:42:45;;;;;;;4.40;1.42;;;23.60;65.20;;;;;;4982227;28;20039;-58
2022/09/06 10:45:30;;;;;;;7.10;1.48;;;23.60;65.10;;;;;;4983406;28;20577;-58
2022/09/06 10:48:07;;;;;;;5.53;1.30;;;23.70;65.00;;;;;;4979633;28;20039;-58
2022/09/06 10:50:49;;;;;;;6.40;1.58;;;23.70;64.90;;;;;;4966042;28;20580;-58
2022/09/06 10:53:26;;;;;;;6.13;1.50;;;23.70;64.90;;;;;;4981921;28;20074;-58
2022/09/06 10:56:07;;;;;;;4.65;1.30;;;23.70;64.80;;;;;;5000334;28;20068;-58
2022/09/06 10:59:02;;;;;;;5.38;1.58;;;23.70;64.80;;;;;;4982993;28;20049;-58
2022/09/06 11:01:28;;;;;;;;;;;23.70;65.00;;;;;;4987003;28;20050;-58
2022/09/06 11:03:54;;;;;;;7.00;1.40;;;23.70;64.90;;;;;;4985297;28;19961;-58
2022/09/06 11:06:20;;;;;;;4.53;1.25;;;23.70;65.00;;;;;;5000498;28;20037;-58
2022/09/06 11:09:17;;;;;;;5.90;1.40;;;23.70;65.00;;;;;;4999485;28;20180;-58
2022/09/06 11:12:18;;;;;;;6.40;1.60;;;23.70;65.00;;;;;;4979682;28;20022;-58
2022/09/06 11:14:43;;;;;;;6.22;1.52;;;23.70;64.90;;;;;;4980228;28;20584;-58
2022/09/06 11:17:17;;;;;;;5.47;1.50;;;23.70;65.00;;;;;;4965462;28;20031;-58
2022/09/06 11:19:59;;;;;;;6.00;1.55;;;23.70;64.90;;;;;;4976602;28;20038;-58
2022/09/06 11:22:42;;;;;;;4.38;1.23;;;23.70;65.00;;;;;;4962078;28;20035;-58
2022/09/06 11:25:25;;;;;;;9.27;1.55;;;23.70;64.80;;;;;;4981006;28;20459;-58
2022/09/06 11:27:55;;;;;;;6.20;1.48;;;23.70;64.90;;;;;;4965516;28;20125;-58
2022/09/06 11:30:21;;;;;;;6.30;1.70;;;23.70;64.90;;;;;;4972841;28;20470;-58
2022/09/06 11:32:51;;;;;;;3.85;1.15;;;23.70;65.00;;;;;;4964454;28;20562;-58
2022/09/06 11:35:21;;;;;;;3.90;1.20;;;23.70;64.90;;;;;;4966251;28;20657;-58
2022/09/06 11:37:49;;;;;;;6.03;1.60;;;23.80;64.80;;;;;;4967986;28;20042;-58
2022/09/06 11:40:17;;;;;;;4.35;1.50;;;23.80;64.70;;;;;;4977683;28;20034;-58
2022/09/06 11:42:43;;;;;;;5.07;1.60;;;23.90;64.70;;;;;;4963152;28;20149;-58
2022/09/06 11:45:12;;;;;;;7.18;1.33;;;23.90;64.50;;;;;;4983027;28;20129;-58
2022/09/06 11:47:42;;;;;;;4.35;1.30;;;23.90;64.50;;;;;;4983253;28;20402;-58
2022/09/06 11:50:19;;;;;;;5.03;1.30;;;23.90;64.50;;;;;;4980729;28;20038;-58
2022/09/06 11:52:58;;;;;;;5.95;1.30;;;23.90;64.60;;;;;;4987606;28;20065;-58
2022/09/06 11:55:39;;;;;;;7.50;1.63;;;23.90;64.50;;;;;;4983764;28;20410;-58
2022/09/06 11:58:16;;;;;;;6.53;1.73;;;24.00;64.40;;;;;;4982488;28;20026;-58
2022/09/06 12:00:43;;;;;;;4.30;1.27;;;24.00;64.40;;;;;;4997295;28;20105;-58
2022/09/06 12:03:09;;;;;;;6.57;1.50;;;24.00;64.20;;;;;;4997218;28;20026;-58
2022/09/06 12:06:13;;;;;;;6.63;1.50;;;24.00;64.20;;;;;;4996031;28;20524;-58
2022/09/06 12:08:39;;;;;;;5.90;1.52;;;24.00;64.20;;;;;;4984545;28;20042;-58
2022/09/06 12:11:24;;;;;;;3.80;1.30;;;24.00;64.10;;;;;;4990606;28;20475;-58
2022/09/06 12:14:02;;;;;;;6.10;1.63;;;24.10;64.00;;;;;;4977909;28;20033;-58
2022/09/06 12:16:56;;;;;;;6.35;1.67;;;24.10;64.00;;;;;;4986904;28;20502;-58
2022/09/06 12:19:40;;;;;;;4.95;1.40;;;24.10;63.90;;;;;;4985978;28;20140;-58
2022/09/06 12:22:28;;;;;;;6.38;1.50;;;24.10;63.70;;;;;;4985196;28;20034;-58
2022/09/06 12:24:53;;;;;;;5.95;1.35;;;24.20;63.70;;;;;;4986756;28;20526;-58
2022/09/06 12:27:27;;;;;;;4.65;1.20;;;24.20;63.70;;;;;;4984403;28;20042;-58
2022/09/06 12:30:10;;;;;;;5.05;1.52;;;24.20;63.70;;;;;;4979527;28;20023;-58
2022/09/06 12:32:40;;;;;;;6.18;1.30;;;24.30;63.80;;;;;;4979118;28;20035;-58
2022/09/06 12:35:14;;;;;;;6.07;1.40;;;24.30;63.70;;;;;;4990917;28;20027;-58
2022/09/06 12:37:57;;;;;;;4.32;1.40;;;24.30;63.70;;;;;;4982973;28;20045;-58
2022/09/06 12:40:26;;;;;;;5.15;1.45;;;24.30;63.40;;;;;;4983846;28;20048;-58
2022/09/06 12:42:51;;;;;;;4.03;1.30;;;24.40;63.60;;;;;;4999515;28;20018;-58
2022/09/06 12:45:18;;;;;;;5.75;1.60;;;24.30;63.50;;;;;;4984850;28;20459;-58
2022/09/06 12:47:44;;;;;;;5.75;1.60;;;24.40;63.50;;;;;;5000294;28;20101;-58
2022/09/06 12:50:13;;;;;;;4.80;1.40;;;24.40;63.20;;;;;;4984969;28;20456;-58
2022/09/06 12:52:55;;;;;;;6.07;1.60;;;24.40;63.20;;;;;;4984486;28;20030;-58
2022/09/06 12:55:26;;;;;;;6.18;1.50;;;24.40;63.40;;;;;;4985251;28;20507;-58
2022/09/06 12:57:56;;;;;;;4.80;1.50;;;24.40;63.30;;;;;;4986121;28;20042;-58
2022/09/06 13:00:23;;;;;;;4.20;1.20;;;24.40;63.20;;;;;;4983250;28;20503;-58
2022/09/06 13:02:53;;;;;;;5.15;1.67;;;24.40;63.10;;;;;;4983423;28;20039;-58
2022/09/06 13:05:19;;;;;;;6.43;1.63;;;24.40;63.20;;;;;;4984755;28;20089;-58